Time;durP1;ratioP1;P1;durP2;ratioP2;P2;SDS_P1;SDS_P2;PMS_P1;PMS_P2;Temp;Humidity;BMP_temperature;BMP_pressure;BME280_temperature;BME280_humidity;BME280_pressure;Samples;Min_cycle;Max_cycle;Signal;HPM_P1;HPM_P2
2022/03/03 00:00:01;;;;;;;1999.90;999.90;;;-0.30;99.90;;;;;;5025196;28;20463;-69
2022/03/03 00:02:27;;;;;;;1999.90;999.90;;;-0.30;99.90;;;;;;5033788;28;20960;-71
2022/03/03 00:04:55;;;;;;;1999.90;999.90;;;-0.20;99.90;;;;;;5034470;28;20990;-70
2022/03/03 00:07:23;;;;;;;1999.90;999.90;;;0.00;99.90;;;;;;5035141;28;20446;-70
2022/03/03 00:09:50;;;;;;;1999.90;999.90;;;-0.10;99.90;;;;;;5034342;28;20511;-71
2022/03/03 00:12:16;;;;;;;1999.90;999.90;;;-0.10;99.90;;;;;;5030320;28;20514;-70
2022/03/03 00:14:43;;;;;;;1999.90;999.90;;;-0.20;99.90;;;;;;5034170;28;21018;-70
2022/03/03 00:17:10;;;;;;;1999.90;999.90;;;-0.30;99.90;;;;;;5035164;28;20459;-70
2022/03/03 00:19:36;;;;;;;1999.90;999.90;;;-0.30;99.90;;;;;;5033855;28;21002;-71
2022/03/03 00:22:04;;;;;;;1999.90;999.90;;;0.10;99.90;;;;;;5033121;28;20471;-70
2022/03/03 00:24:32;;;;;;;1999.90;999.90;;;-0.30;99.90;;;;;;5032480;28;20500;-70
2022/03/03 00:26:58;;;;;;;1999.90;999.90;;;-0.30;99.90;;;;;;5032339;28;20478;-70
2022/03/03 00:29:25;;;;;;;1999.90;999.90;;;-0.30;99.90;;;;;;5032437;28;20491;-68
2022/03/03 00:31:52;;;;;;;1999.90;999.90;;;-0.30;99.90;;;;;;5031148;28;20486;-70
2022/03/03 00:34:19;;;;;;;1999.90;999.90;;;-0.10;99.90;;;;;;5034690;28;20501;-70
2022/03/03 00:36:45;;;;;;;1999.90;999.90;;;-0.40;99.90;;;;;;5034023;28;20443;-70
2022/03/03 00:39:12;;;;;;;1999.90;999.90;;;-0.30;99.90;;;;;;5037046;28;20948;-72
2022/03/03 00:41:40;;;;;;;1999.90;999.90;;;-0.40;99.90;;;;;;5052046;28;20529;-71
2022/03/03 00:44:09;;;;;;;1999.90;999.90;;;-0.50;99.90;;;;;;5053448;28;20493;-71
2022/03/03 00:46:36;;;;;;;1999.90;999.90;;;-0.50;99.90;;;;;;5042080;28;20455;-69
2022/03/03 00:49:04;;;;;;;1999.90;999.90;;;-0.30;99.90;;;;;;5033033;28;20486;-70
2022/03/03 00:51:31;;;;;;;1999.90;999.90;;;-0.40;99.90;;;;;;5031740;28;20475;-70
2022/03/03 00:53:58;;;;;;;1999.90;999.90;;;-0.60;99.90;;;;;;5032206;28;20876;-71
2022/03/03 00:56:25;;;;;;;1999.90;999.90;;;-0.50;99.90;;;;;;5031482;28;20509;-71
2022/03/03 00:58:53;;;;;;;1999.90;999.90;;;-0.30;99.90;;;;;;5032159;28;20455;-70
2022/03/03 01:01:20;;;;;;;1999.90;999.90;;;-0.70;99.90;;;;;;5031750;28;20533;-70
2022/03/03 01:03:46;;;;;;;1999.90;999.90;;;-0.30;99.90;;;;;;5032197;28;20443;-70
2022/03/03 01:06:14;;;;;;;1999.90;999.90;;;-0.80;99.90;;;;;;5032816;28;20447;-70
2022/03/03 01:08:41;;;;;;;1999.90;999.90;;;-0.80;99.90;;;;;;5031982;28;20485;-70
2022/03/03 01:11:07;;;;;;;1999.90;999.90;;;-0.80;99.90;;;;;;5031191;28;20613;-69
2022/03/03 01:13:35;;;;;;;1999.90;999.90;;;-0.10;99.90;;;;;;5032371;28;20451;-70
2022/03/03 01:16:03;;;;;;;1999.90;999.90;;;-0.20;99.90;;;;;;5031903;28;20459;-70
2022/03/03 01:18:30;;;;;;;1999.90;999.90;;;-0.80;99.90;;;;;;5032146;28;20506;-69
2022/03/03 01:20:57;;;;;;;1999.90;999.90;;;-0.50;99.90;;;;;;5032852;28;20505;-71
2022/03/03 01:23:24;;;;;;;1999.90;999.90;;;-0.80;99.90;;;;;;5031792;28;20455;-70
2022/03/03 01:25:51;;;;;;;1999.90;999.90;;;-0.70;99.90;;;;;;5031441;28;20455;-70
2022/03/03 01:28:17;;;;;;;1999.90;999.90;;;-0.20;99.90;;;;;;5032817;28;21109;-70
2022/03/03 01:30:44;;;;;;;1999.90;999.90;;;-0.70;99.90;;;;;;5031674;28;20529;-70
2022/03/03 01:33:13;;;;;;;1999.90;999.90;;;-0.30;99.90;;;;;;5031379;28;20497;-68
2022/03/03 01:35:40;;;;;;;1999.90;999.90;;;-0.80;99.90;;;;;;5031696;28;21132;-69
2022/03/03 01:38:06;;;;;;;1999.90;999.90;;;-0.90;99.90;;;;;;5030915;28;20594;-70
2022/03/03 01:40:33;;;;;;;1999.90;999.90;;;-0.40;99.90;;;;;;5030519;28;20885;-70
2022/03/03 01:43:00;;;;;;;1999.90;999.90;;;-0.90;99.90;;;;;;5031239;28;20501;-70
2022/03/03 01:45:27;;;;;;;1999.90;999.90;;;-0.90;99.90;;;;;;5030936;28;20478;-70
2022/03/03 01:47:53;;;;;;;1999.90;999.90;;;-0.60;99.90;;;;;;5030573;28;20532;-70
2022/03/03 01:50:21;;;;;;;1999.90;999.90;;;-0.30;99.90;;;;;;5032338;28;20487;-70
2022/03/03 01:52:48;;;;;;;1999.90;999.90;;;-0.70;99.90;;;;;;5031068;28;20443;-70
2022/03/03 01:55:15;;;;;;;1999.90;999.90;;;-0.70;99.90;;;;;;5031060;28;20862;-69
2022/03/03 01:57:42;;;;;;;1999.90;999.90;;;-0.70;99.90;;;;;;5031004;28;20451;-72
2022/03/03 02:00:09;;;;;;;1999.90;999.90;;;-0.80;99.90;;;;;;5030391;28;21062;-68
2022/03/03 02:02:36;;;;;;;1999.90;999.90;;;-1.00;99.90;;;;;;5031115;28;20451;-70
2022/03/03 02:05:03;;;;;;;1999.90;999.90;;;-0.30;99.90;;;;;;5032288;28;20485;-70
2022/03/03 02:07:31;;;;;;;1999.90;999.90;;;-0.40;99.90;;;;;;5030516;28;20447;-70
2022/03/03 02:09:57;;;;;;;1999.90;999.90;;;-1.10;99.90;;;;;;5030566;28;20521;-70
2022/03/03 02:12:24;;;;;;;1999.90;999.90;;;-0.70;99.90;;;;;;5029997;28;20477;-70
2022/03/03 02:14:52;;;;;;;1999.90;999.90;;;-1.10;99.90;;;;;;5031088;28;20520;-70
2022/03/03 02:17:18;;;;;;;1999.90;999.90;;;-0.70;99.90;;;;;;5030447;28;20466;-70
2022/03/03 02:19:45;;;;;;;1999.90;999.90;;;-1.10;99.90;;;;;;5031617;28;20986;-69
2022/03/03 02:22:14;;;;;;;1999.90;999.90;;;-0.60;99.90;;;;;;5030361;28;20455;-70
2022/03/03 02:24:43;;;;;;;1999.90;999.90;;;-1.30;99.90;;;;;;5029912;28;20454;-70
2022/03/03 02:27:10;;;;;;;1999.90;999.90;;;-1.40;99.90;;;;;;5029721;28;20489;-70
2022/03/03 02:29:37;;;;;;;1999.90;999.90;;;-0.70;99.90;;;;;;5030261;28;20479;-69
2022/03/03 02:32:05;;;;;;;1999.90;999.90;;;-0.70;99.90;;;;;;5029790;28;20533;-70
2022/03/03 02:34:32;;;;;;;1999.90;999.90;;;-1.20;99.90;;;;;;5031225;28;20869;-69
2022/03/03 02:36:59;;;;;;;1999.90;999.90;;;-0.80;99.90;;;;;;5031695;28;20459;-70
2022/03/03 02:39:27;;;;;;;1999.90;999.90;;;-1.30;99.90;;;;;;5029631;28;20443;-70
2022/03/03 02:41:53;;;;;;;1999.90;999.90;;;-1.30;99.90;;;;;;5030614;28;20489;-70
2022/03/03 02:44:20;;;;;;;1999.90;999.90;;;-0.80;99.90;;;;;;5030747;28;20451;-70
2022/03/03 02:46:47;;;;;;;1999.90;999.90;;;-1.10;99.90;;;;;;5031338;28;20459;-70
2022/03/03 02:49:13;;;;;;;1999.90;999.90;;;-0.80;99.90;;;;;;5030912;28;20491;-71
2022/03/03 02:51:40;;;;;;;1999.90;999.90;;;-1.10;99.90;;;;;;5011113;28;20467;-70
2022/03/03 02:54:07;;;;;;;1999.90;999.90;;;-0.70;99.90;;;;;;5019720;28;20861;-70
2022/03/03 02:57:53;;;;;;;1999.90;999.90;;;-0.90;99.90;;;;;;5029850;28;20538;-69
2022/03/03 02:59:22;;;;;;;1999.90;999.90;;;-1.70;99.90;;;;;;5028971;28;20443;-71
2022/03/03 03:01:49;;;;;;;1999.90;999.90;;;-1.30;99.90;;;;;;5029577;28;20536;-69
2022/03/03 03:04:15;;;;;;;1999.90;999.90;;;-1.10;99.90;;;;;;5030055;28;20455;-69
2022/03/03 03:06:42;;;;;;;1999.90;999.90;;;-1.40;99.90;;;;;;5030549;28;20443;-70
2022/03/03 03:09:09;;;;;;;1999.90;999.90;;;-1.90;99.90;;;;;;5029540;28;20471;-70
2022/03/03 03:11:37;;;;;;;1999.90;999.90;;;-1.20;99.90;;;;;;5029273;28;20521;-68
2022/03/03 03:14:03;;;;;;;1999.90;999.90;;;-1.50;99.90;;;;;;5020617;28;20451;-70
2022/03/03 03:16:30;;;;;;;1999.90;999.90;;;-1.70;99.90;;;;;;5033538;28;20443;-69
2022/03/03 03:18:57;;;;;;;1999.90;999.90;;;-1.10;99.90;;;;;;5033561;28;20509;-70
2022/03/03 03:21:23;;;;;;;1999.90;999.90;;;-1.10;99.90;;;;;;5034338;28;21072;-71
2022/03/03 03:23:50;;;;;;;1999.90;999.90;;;-1.50;99.90;;;;;;5033135;28;20443;-70
2022/03/03 03:26:17;;;;;;;1999.90;999.90;;;-1.10;99.90;;;;;;5033451;28;20873;-70
2022/03/03 03:28:45;;;;;;;1999.90;999.90;;;-1.00;99.90;;;;;;5032939;28;20444;-70
2022/03/03 03:31:11;;;;;;;1999.90;999.90;;;-1.50;99.90;;;;;;5032992;28;20482;-69
2022/03/03 03:33:38;;;;;;;1999.90;999.90;;;-1.50;99.90;;;;;;5032791;28;20826;-70
2022/03/03 03:36:05;;;;;;;1999.90;999.90;;;-1.50;99.90;;;;;;5034017;28;20995;-70
2022/03/03 03:38:32;;;;;;;1999.90;999.90;;;-1.50;99.90;;;;;;5033188;28;20454;-70
2022/03/03 03:40:59;;;;;;;1999.90;999.90;;;-0.90;99.90;;;;;;5032554;28;20524;-70
2022/03/03 03:43:25;;;;;;;1999.90;999.90;;;-1.50;99.90;;;;;;5033520;28;20501;-70
2022/03/03 03:45:54;;;;;;;1999.90;999.90;;;-1.60;99.90;;;;;;5033154;28;20530;-69
2022/03/03 03:48:20;;;;;;;1999.90;999.90;;;-1.60;99.90;;;;;;5033583;28;20830;-70
2022/03/03 03:50:47;;;;;;;1999.90;999.90;;;-1.60;99.90;;;;;;5033712;28;20557;-70
2022/03/03 03:53:14;;;;;;;1999.90;999.90;;;-1.30;99.90;;;;;;5033173;28;20502;-70
2022/03/03 03:55:40;;;;;;;1999.90;999.90;;;-1.50;99.90;;;;;;5032572;28;20447;-70
2022/03/03 03:58:07;;;;;;;1999.90;999.90;;;-1.70;99.90;;;;;;5032060;28;20944;-69
2022/03/03 04:00:34;;;;;;;1999.90;999.90;;;-1.50;99.90;;;;;;5032248;28;20525;-69
2022/03/03 04:03:02;;;;;;;1999.90;999.90;;;-1.10;99.90;;;;;;5032710;28;20447;-71
2022/03/03 04:05:29;;;;;;;1999.90;999.90;;;-1.60;99.90;;;;;;5033157;28;20481;-69
2022/03/03 04:07:56;;;;;;;1999.90;999.90;;;-1.40;99.90;;;;;;5032362;28;20958;-70
2022/03/03 04:10:23;;;;;;;1999.90;999.90;;;-1.10;99.90;;;;;;5031359;28;20514;-70
2022/03/03 04:12:50;;;;;;;1999.90;999.90;;;-1.40;99.90;;;;;;5032428;28;20996;-69
2022/03/03 04:15:17;;;;;;;1999.90;999.90;;;-1.80;99.90;;;;;;5032865;28;20501;-70
2022/03/03 04:17:44;;;;;;;1999.90;999.90;;;-1.60;99.90;;;;;;5033350;28;20447;-69
2022/03/03 04:20:12;;;;;;;1999.90;999.90;;;-1.80;99.90;;;;;;5032206;28;20502;-69
2022/03/03 04:22:40;;;;;;;1999.90;999.90;;;-1.90;99.90;;;;;;5032957;28;20865;-70
2022/03/03 04:25:10;;;;;;;1999.90;999.90;;;-1.80;99.90;;;;;;5031700;28;20877;-70
2022/03/03 04:27:37;;;;;;;1999.90;999.90;;;-1.80;99.90;;;;;;5032283;28;21017;-70
2022/03/03 04:30:05;;;;;;;1999.90;999.90;;;-1.80;99.90;;;;;;5031672;28;21048;-70
2022/03/03 04:32:31;;;;;;;1999.90;999.90;;;-1.70;99.90;;;;;;5032196;28;20451;-70
2022/03/03 04:34:58;;;;;;;1999.90;999.90;;;-1.90;99.90;;;;;;5032437;28;20494;-69
2022/03/03 04:37:26;;;;;;;1999.90;999.90;;;-1.30;99.90;;;;;;5032621;28;20455;-69
2022/03/03 04:39:52;;;;;;;1999.90;999.90;;;-1.40;99.90;;;;;;5031755;28;20513;-69
2022/03/03 04:42:19;;;;;;;1999.90;999.90;;;-2.00;99.90;;;;;;5031893;28;20497;-70
2022/03/03 04:44:46;;;;;;;1999.90;999.90;;;-2.00;99.90;;;;;;5031746;28;20451;-69
2022/03/03 04:47:12;;;;;;;1999.90;999.90;;;-1.20;99.90;;;;;;5031629;28;20448;-70
2022/03/03 04:49:39;;;;;;;1999.90;999.90;;;-1.40;99.90;;;;;;5032882;28;20479;-69
2022/03/03 04:52:06;;;;;;;1999.90;999.90;;;-1.70;99.90;;;;;;5031878;28;20560;-70
2022/03/03 04:54:34;;;;;;;1999.90;999.90;;;-1.90;99.90;;;;;;5031775;28;20537;-69
2022/03/03 04:57:01;;;;;;;1999.90;999.90;;;-2.00;99.90;;;;;;5031288;28;20455;-69
2022/03/03 04:59:28;;;;;;;1999.90;999.90;;;-2.10;99.90;;;;;;5031480;28;20478;-69
2022/03/03 05:01:55;;;;;;;1999.90;999.90;;;-1.50;99.90;;;;;;5030680;28;20894;-69
2022/03/03 05:04:21;;;;;;;1999.90;999.90;;;-2.20;99.90;;;;;;5032222;28;20538;-70
2022/03/03 05:06:49;;;;;;;1999.90;999.90;;;-2.10;99.90;;;;;;5032868;28;20452;-69
2022/03/03 05:09:16;;;;;;;1999.90;999.90;;;-1.90;99.90;;;;;;5031627;28;20541;-69
2022/03/03 05:11:45;;;;;;;1999.90;999.90;;;-1.70;99.90;;;;;;5031992;28;20483;-69
2022/03/03 05:14:11;;;;;;;1999.90;999.90;;;-2.20;99.90;;;;;;5043606;28;20937;-70
2022/03/03 05:16:38;;;;;;;1999.90;999.90;;;-2.30;99.90;;;;;;5045245;28;21000;-69
2022/03/03 05:19:05;;;;;;;1999.90;999.90;;;-2.30;99.90;;;;;;5043559;28;20888;-69
2022/03/03 05:21:32;;;;;;;1999.90;999.90;;;-2.30;99.90;;;;;;5032626;28;20463;-71
2022/03/03 05:23:59;;;;;;;1999.90;999.90;;;-1.60;99.90;;;;;;5033399;28;20526;-69
2022/03/03 05:26:26;;;;;;;1999.90;999.90;;;-2.30;99.90;;;;;;5034310;28;20978;-70
2022/03/03 05:28:54;;;;;;;1999.90;999.90;;;-2.20;99.90;;;;;;5034576;28;20874;-69
2022/03/03 05:31:21;;;;;;;1999.90;999.90;;;-2.10;99.90;;;;;;5031398;28;21038;-71
2022/03/03 05:33:48;;;;;;;1999.90;999.90;;;-2.10;99.90;;;;;;5032925;28;20443;-70
2022/03/03 05:36:15;;;;;;;1999.90;999.90;;;-2.10;99.90;;;;;;5032240;28;20521;-70
2022/03/03 05:38:41;;;;;;;1999.90;999.90;;;-2.10;99.90;;;;;;5032561;28;20451;-70
2022/03/03 05:41:08;;;;;;;1999.90;999.90;;;-2.10;99.90;;;;;;5032136;28;20490;-67
2022/03/03 05:43:35;;;;;;;1999.90;999.90;;;-1.50;99.90;;;;;;5032408;28;20490;-70
2022/03/03 05:46:04;;;;;;;1999.90;999.90;;;-1.80;99.90;;;;;;5031731;28;20509;-70
2022/03/03 05:48:32;;;;;;;1999.90;999.90;;;-2.20;99.90;;;;;;5032226;28;20447;-70
2022/03/03 05:50:59;;;;;;;1999.90;999.90;;;-1.70;99.90;;;;;;5032040;28;20490;-70
2022/03/03 05:53:26;;;;;;;1999.90;999.90;;;-1.50;99.90;;;;;;5032295;28;20451;-70
2022/03/03 05:55:55;;;;;;;1999.90;999.90;;;-2.10;99.90;;;;;;5032275;28;20517;-69
2022/03/03 05:58:23;;;;;;;1999.90;999.90;;;-2.20;99.90;;;;;;5031620;28;20834;-69
2022/03/03 06:00:54;;;;;;;1999.90;999.90;;;-1.50;99.90;;;;;;5021526;28;20474;-69
2022/03/03 06:03:23;;;;;;;1999.90;999.90;;;-2.20;99.90;;;;;;5032329;28;20443;-69
2022/03/03 06:05:51;;;;;;;1999.90;999.90;;;-1.80;99.90;;;;;;5032019;28;20497;-69
2022/03/03 06:08:23;;;;;;;1999.90;999.90;;;-2.10;99.90;;;;;;5032066;28;20506;-70
2022/03/03 06:10:53;;;;;;;1999.90;999.90;;;-2.10;99.90;;;;;;5031844;28;20487;-71
2022/03/03 06:13:24;;;;;;;1999.90;999.90;;;-2.00;99.90;;;;;;5031899;28;20459;-71
2022/03/03 06:15:51;;;;;;;1999.90;999.90;;;-2.20;99.90;;;;;;5031799;28;20517;-69
2022/03/03 06:18:25;;;;;;;1999.90;999.90;;;-2.20;99.90;;;;;;5031657;28;20467;-71
2022/03/03 06:20:52;;;;;;;1999.90;999.90;;;-2.20;99.90;;;;;;5031218;28;21498;-70
2022/03/03 06:23:19;;;;;;;1999.90;999.90;;;-1.80;99.90;;;;;;5032053;28;20505;-70
2022/03/03 06:25:49;;;;;;;1999.90;999.90;;;-1.50;99.90;;;;;;5031646;28;20446;-68
2022/03/03 06:28:15;;;;;;;1999.90;999.90;;;-2.10;99.90;;;;;;5031922;28;20517;-70
2022/03/03 06:30:42;;;;;;;1999.90;999.90;;;-1.90;99.90;;;;;;5029543;28;20991;-67
2022/03/03 06:33:09;;;;;;;1999.90;999.90;;;-2.00;99.90;;;;;;5030583;28;21279;-69
2022/03/03 06:35:38;;;;;;;1999.90;999.90;;;-1.90;99.90;;;;;;5052577;22;20527;-66
2022/03/03 06:38:07;;;;;;;1999.90;999.90;;;-1.90;99.90;;;;;;5023353;28;20870;-66
2022/03/03 06:40:34;;;;;;;1999.90;999.90;;;-1.80;99.90;;;;;;5015054;28;21154;-66
2022/03/03 06:43:01;;;;;;;1999.90;999.90;;;-1.80;99.90;;;;;;5016873;28;20948;-66
2022/03/03 06:45:28;;;;;;;1999.90;999.90;;;-1.70;99.90;;;;;;5014373;28;20557;-65
2022/03/03 06:47:55;;;;;;;1999.90;999.90;;;-1.50;99.90;;;;;;5013033;28;20483;-66
2022/03/03 06:50:22;;;;;;;1999.90;999.90;;;-1.40;99.90;;;;;;5006415;28;20484;-66
2022/03/03 06:52:51;;;;;;;1999.90;999.90;;;-1.40;99.90;;;;;;5019075;28;20542;-66
2022/03/03 06:55:21;;;;;;;1999.90;999.90;;;-1.10;99.90;;;;;;5018405;28;20846;-65
2022/03/03 06:57:49;;;;;;;1999.90;999.90;;;-0.90;99.90;;;;;;5007977;28;20971;-68
2022/03/03 07:00:19;;;;;;;1999.90;999.90;;;-1.00;99.90;;;;;;4999064;28;20460;-67
2022/03/03 07:02:47;;;;;;;1999.90;999.90;;;-0.90;99.90;;;;;;5008579;28;20492;-67
2022/03/03 07:05:14;;;;;;;1999.90;999.90;;;-0.70;99.90;;;;;;5001798;28;20469;-67
2022/03/03 07:07:43;;;;;;;1999.90;999.90;;;-0.50;99.90;;;;;;5009345;28;20482;-67
2022/03/03 07:10:12;;;;;;;1999.90;999.90;;;-0.30;99.90;;;;;;5016824;28;20498;-67
2022/03/03 07:12:39;;;;;;;1999.90;999.90;;;-0.30;99.90;;;;;;4999986;28;20449;-65
2022/03/03 07:15:07;;;;;;;1999.90;999.90;;;-0.10;99.90;;;;;;4999043;28;20465;-70
2022/03/03 07:17:49;;;;;;;1999.90;999.90;;;0.10;99.90;;;;;;4998365;28;20453;-67
2022/03/03 07:20:19;;;;;;;1999.90;999.90;;;0.30;99.90;;;;;;4997511;28;20519;-67
2022/03/03 07:22:57;;;;;;;1999.90;999.90;;;0.60;99.90;;;;;;4998594;28;20484;-68
2022/03/03 07:25:38;;;;;;;1999.90;999.90;;;0.80;99.90;;;;;;5003163;28;20490;-73
2022/03/03 07:28:08;;;;;;;1999.90;999.90;;;1.00;99.90;;;;;;5015662;28;20444;-68
2022/03/03 07:30:40;;;;;;;1999.90;999.90;;;1.10;99.90;;;;;;4999790;28;20480;-68
2022/03/03 07:33:09;;;;;;;1999.90;999.90;;;1.40;99.90;;;;;;5017248;28;20452;-68
2022/03/03 07:35:36;;;;;;;1999.90;999.90;;;1.40;99.90;;;;;;4999613;28;20622;-69
2022/03/03 07:38:13;;;;;;;1999.90;999.90;;;1.50;99.90;;;;;;5015967;28;20452;-68
2022/03/03 07:40:42;;;;;;;1999.90;999.90;;;1.60;99.90;;;;;;5015727;28;20440;-67
2022/03/03 07:43:09;;;;;;;1999.90;999.90;;;1.90;99.90;;;;;;5020828;28;20462;-68
2022/03/03 07:45:37;;;;;;;1999.90;999.90;;;2.00;99.90;;;;;;5016053;28;20514;-69
2022/03/03 07:48:04;;;;;;;1999.90;999.90;;;1.90;99.90;;;;;;5001094;28;20452;-66
2022/03/03 07:50:30;;;;;;;1999.90;999.90;;;2.10;99.90;;;;;;5008471;28;20890;-68
2022/03/03 07:52:57;;;;;;;1999.90;999.90;;;2.30;99.90;;;;;;5015155;28;20509;-67
2022/03/03 07:55:24;;;;;;;1999.90;999.90;;;2.60;99.90;;;;;;5016461;28;20537;-67
2022/03/03 07:57:59;;;;;;;1999.90;999.90;;;3.00;99.90;;;;;;5015170;28;20535;-69
2022/03/03 08:00:29;;;;;;;1999.90;999.90;;;3.20;99.90;;;;;;5033409;28;20454;-66
2022/03/03 08:02:59;;;;;;;1999.90;999.90;;;3.40;99.90;;;;;;5035153;28;20450;-68
2022/03/03 08:05:28;;;;;;;1999.90;999.90;;;3.70;99.90;;;;;;5032454;28;20463;-68
2022/03/03 08:07:56;;;;;;;1999.90;999.90;;;4.00;99.90;;;;;;5014842;28;20498;-68
2022/03/03 08:10:26;;;;;;;1999.90;999.90;;;4.30;99.90;;;;;;5013955;28;20460;-68
2022/03/03 08:12:58;;;;;;;1999.90;999.90;;;4.40;99.90;;;;;;4996414;28;20515;-67
2022/03/03 08:15:25;;;;;;;1999.90;999.90;;;4.50;99.90;;;;;;5001474;28;20905;-68
2022/03/03 08:17:53;;;;;;;1999.90;999.90;;;4.60;99.90;;;;;;5015704;28;20475;-67
2022/03/03 08:20:21;;;;;;;1999.90;999.90;;;4.60;99.90;;;;;;5014180;28;20452;-68
2022/03/03 08:22:48;;;;;;;1999.90;999.90;;;4.60;99.90;;;;;;5012940;28;20499;-68
2022/03/03 08:25:17;;;;;;;1999.90;999.90;;;4.50;99.90;;;;;;5014143;28;20472;-68
2022/03/03 08:27:44;;;;;;;1999.90;999.90;;;4.70;99.90;;;;;;5014031;28;20476;-67
2022/03/03 08:30:13;;;;;;;1999.90;999.90;;;4.90;99.90;;;;;;5016815;28;20514;-67
2022/03/03 08:32:42;;;;;;;1999.90;999.90;;;5.00;99.90;;;;;;5015736;28;20487;-68
2022/03/03 08:35:14;;;;;;;1999.90;999.90;;;4.70;99.90;;;;;;5001866;28;20485;-68
2022/03/03 08:37:43;;;;;;;1999.90;999.90;;;4.40;99.90;;;;;;5013912;28;20451;-67
2022/03/03 08:40:12;;;;;;;1999.90;999.90;;;4.10;99.90;;;;;;5016482;28;20505;-67
2022/03/03 08:42:43;;;;;;;1999.90;999.90;;;4.00;99.90;;;;;;5003118;28;20948;-68
2022/03/03 08:45:12;;;;;;;1999.90;999.90;;;4.10;99.90;;;;;;5007777;28;20468;-72
2022/03/03 08:47:41;;;;;;;1999.90;999.90;;;4.30;99.90;;;;;;5027812;28;20452;-68
2022/03/03 08:50:13;;;;;;;1999.90;999.90;;;4.50;99.90;;;;;;5012861;28;21179;-68
2022/03/03 08:52:42;;;;;;;1999.90;999.90;;;4.60;99.90;;;;;;5014838;28;20473;-69
2022/03/03 08:55:11;;;;;;;1999.90;999.90;;;4.60;99.90;;;;;;5014826;28;20468;-69
2022/03/03 08:57:37;;;;;;;1999.90;999.90;;;4.90;99.90;;;;;;5015229;28;20506;-70
2022/03/03 09:00:06;;;;;;;1999.90;999.90;;;5.10;99.90;;;;;;5013749;28;20448;-69
2022/03/03 09:02:34;;;;;;;1999.90;999.90;;;5.40;99.90;;;;;;5014314;28;20447;-69
2022/03/03 09:05:00;;;;;;;1999.90;999.90;;;5.50;99.90;;;;;;5020072;28;20501;-70
2022/03/03 09:07:27;;;;;;;1999.90;999.90;;;5.50;99.90;;;;;;5033531;28;20443;-69
2022/03/03 09:09:54;;;;;;;1999.90;999.90;;;5.60;99.90;;;;;;5013038;28;20865;-69
2022/03/03 09:12:21;;;;;;;1999.90;999.90;;;6.00;99.90;;;;;;5009536;28;20480;-66
2022/03/03 09:14:48;;;;;;;1999.90;999.90;;;6.40;99.90;;;;;;4993667;28;20907;-70
2022/03/03 09:17:15;;;;;;;1999.90;999.90;;;6.70;99.90;;;;;;4994501;28;20490;-67
2022/03/03 09:19:43;;;;;;;1999.90;999.90;;;7.00;99.90;;;;;;4994621;28;20453;-67
2022/03/03 09:22:10;;;;;;;1999.90;999.90;;;7.20;99.90;;;;;;5006087;28;20950;-67
2022/03/03 09:24:36;;;;;;;1999.90;999.90;;;7.40;99.90;;;;;;5013211;28;20889;-68
2022/03/03 09:27:04;;;;;;;1999.90;999.90;;;7.50;99.90;;;;;;5013083;28;20452;-68
2022/03/03 09:29:33;;;;;;;1999.90;999.90;;;7.70;99.90;;;;;;5013393;28;20539;-66
2022/03/03 09:31:59;;;;;;;1999.90;999.90;;;7.90;99.90;;;;;;5013033;28;20583;-68
2022/03/03 09:34:28;;;;;;;1999.90;999.90;;;7.90;99.00;;;;;;5010835;28;20518;-68
2022/03/03 09:36:56;;;;;;;1999.90;999.90;;;7.80;96.90;;;;;;5025291;28;20497;-67
2022/03/03 09:39:23;;;;;;;1999.90;999.90;;;7.30;98.70;;;;;;5028910;28;20454;-68
2022/03/03 09:41:50;;;;;;;1999.90;999.90;;;7.30;99.00;;;;;;5019296;28;20448;-69
2022/03/03 09:44:21;;;;;;;1999.90;999.90;;;7.20;98.80;;;;;;5013058;28;20448;-67
2022/03/03 09:46:48;;;;;;;1999.90;999.90;;;7.30;98.80;;;;;;5013149;28;20440;-68
2022/03/03 09:49:14;;;;;;;1999.90;999.90;;;7.50;99.10;;;;;;5012917;28;20514;-69
2022/03/03 09:51:41;;;;;;;1999.90;999.90;;;7.70;96.70;;;;;;5012497;28;20541;-68
2022/03/03 09:54:09;;;;;;;1999.90;999.90;;;7.60;96.90;;;;;;5030499;28;20451;-68
2022/03/03 09:56:37;;;;;;;1999.90;999.90;;;7.80;97.80;;;;;;5032384;28;21238;-68
2022/03/03 09:59:04;;;;;;;1999.90;999.90;;;7.80;97.10;;;;;;5032137;28;20447;-68
2022/03/03 10:01:32;;;;;;;1999.90;999.90;;;7.80;95.60;;;;;;5032112;28;20439;-67
2022/03/03 10:04:13;;;;;;;1999.90;999.90;;;7.90;95.60;;;;;;5032351;28;20451;-68
2022/03/03 10:06:41;;;;;;;1999.90;999.90;;;7.70;96.50;;;;;;5029866;28;20858;-68
2022/03/03 10:09:09;;;;;;;1999.90;999.90;;;7.80;96.20;;;;;;5030293;28;20862;-68
2022/03/03 10:11:41;;;;;;;1999.90;999.90;;;7.70;96.30;;;;;;5024508;28;20542;-69
2022/03/03 10:14:07;;;;;;;1999.90;999.90;;;8.00;97.10;;;;;;5012903;28;20880;-65
2022/03/03 10:16:34;;;;;;;1999.90;999.90;;;8.20;96.50;;;;;;5012567;28;20472;-68
2022/03/03 10:19:03;;;;;;;1999.90;999.90;;;8.20;96.30;;;;;;5012423;28;20464;-67
2022/03/03 10:21:32;;;;;;;1999.90;999.90;;;8.30;96.00;;;;;;5018482;28;20455;-68
2022/03/03 10:24:00;;;;;;;1999.90;999.90;;;8.30;97.10;;;;;;5032261;28;20459;-69
2022/03/03 10:26:38;;;;;;;1999.90;999.90;;;8.40;97.30;;;;;;5032249;28;20471;-69
2022/03/03 10:29:15;;;;;;;1999.90;999.90;;;8.50;96.80;;;;;;5032078;28;20447;-68
2022/03/03 10:31:46;;;;;;;1999.90;999.90;;;8.50;96.20;;;;;;5031941;28;20467;-65
2022/03/03 10:34:17;;;;;;;1999.90;999.90;;;8.60;94.70;;;;;;5031918;28;20530;-68
2022/03/03 10:36:43;;;;;;;1999.90;999.90;;;8.60;94.60;;;;;;5022187;28;20519;-68
2022/03/03 10:39:10;;;;;;;1999.90;999.90;;;8.50;95.00;;;;;;5025656;28;20451;-69
2022/03/03 10:41:40;;;;;;;1999.90;999.90;;;8.10;94.90;;;;;;5031396;28;20489;-68
2022/03/03 10:44:09;;;;;;;1999.90;999.90;;;8.10;95.80;;;;;;5031895;28;20877;-70
2022/03/03 10:46:37;;;;;;;1999.90;999.90;;;8.20;95.80;;;;;;5031777;28;20866;-69
2022/03/03 10:49:21;;;;;;;1999.90;999.90;;;8.10;95.70;;;;;;5031798;28;20455;-68
2022/03/03 10:51:48;;;;;;;1999.90;999.90;;;8.10;95.70;;;;;;5014359;28;20558;-68
2022/03/03 10:54:15;;;;;;;1999.90;999.90;;;8.30;95.90;;;;;;5011778;28;20940;-65
2022/03/03 10:56:45;;;;;;;1999.90;999.90;;;8.40;96.20;;;;;;5012154;28;20451;-68
2022/03/03 10:59:17;;;;;;;1999.90;999.90;;;8.20;95.70;;;;;;5011694;28;20428;-68
2022/03/03 11:01:44;;;;;;;1999.90;999.90;;;8.10;95.80;;;;;;4993021;28;20456;-68
2022/03/03 11:04:15;;;;;;;1999.90;999.90;;;8.20;95.90;;;;;;4999438;28;20449;-67
2022/03/03 11:06:42;;;;;;;1999.90;999.90;;;8.70;96.70;;;;;;5029608;28;20456;-70
2022/03/03 11:09:09;;;;;;;1999.90;999.90;;;9.50;95.40;;;;;;5010356;28;20452;-66
2022/03/03 11:11:37;;;;;;;1999.90;999.90;;;9.60;94.40;;;;;;5004561;28;20510;-68
2022/03/03 11:14:06;;;;;;;1999.90;999.90;;;9.50;93.40;;;;;;5009612;28;20462;-68
2022/03/03 11:16:33;;;;;;;1999.90;999.90;;;9.10;93.50;;;;;;5011623;28;20472;-68
2022/03/03 11:19:00;;;;;;;1999.90;999.90;;;9.00;92.90;;;;;;5010338;28;20445;-69
2022/03/03 11:21:27;;;;;;;1999.90;999.90;;;9.20;93.50;;;;;;4991621;28;20460;-66
2022/03/03 11:23:55;;;;;;;1999.90;999.90;;;9.80;92.60;;;;;;4999265;28;20514;-68
2022/03/03 11:26:25;;;;;;;1999.90;999.90;;;9.70;91.60;;;;;;5011357;28;20518;-68
2022/03/03 11:29:01;;;;;;;1999.90;999.90;;;9.40;91.80;;;;;;5008929;28;20455;-66
2022/03/03 11:31:31;;;;;;;1999.90;999.90;;;9.20;93.10;;;;;;5010693;28;20495;-68
2022/03/03 11:34:29;;;;;;;1999.90;999.90;;;9.10;92.90;;;;;;4995533;28;20499;-69
2022/03/03 11:37:02;;;;;;;1999.90;999.90;;;9.20;92.70;;;;;;5011916;28;20531;-68
2022/03/03 11:39:46;;;;;;;1999.90;999.90;;;9.10;93.50;;;;;;5012019;28;20543;-68
2022/03/03 11:42:24;;;;;;;1999.90;999.90;;;9.00;93.20;;;;;;4999394;28;20428;-68
2022/03/03 11:44:52;;;;;;;1999.90;999.90;;;9.00;93.00;;;;;;5013301;28;20853;-68
2022/03/03 11:47:23;;;;;;;1999.90;999.90;;;9.00;93.20;;;;;;5015329;28;20448;-67
2022/03/03 11:50:12;;;;;;;1999.90;999.90;;;8.90;92.40;;;;;;5014686;28;20482;-67
2022/03/03 11:52:40;;;;;;;1999.90;999.90;;;9.10;92.80;;;;;;5015394;28;20857;-70
2022/03/03 11:55:27;;;;;;;1999.90;999.90;;;9.50;93.20;;;;;;5003342;28;20476;-70
2022/03/03 11:57:54;;;;;;;1999.90;999.90;;;9.60;92.90;;;;;;4995488;28;20456;-70
2022/03/03 12:00:21;;;;;;;1999.90;999.90;;;9.70;92.70;;;;;;4994663;28;20535;-70
2022/03/03 12:02:57;;;;;;;1999.90;999.90;;;9.70;91.80;;;;;;4995186;28;20933;-71
2022/03/03 12:05:35;;;;;;;1999.90;999.90;;;9.70;91.30;;;;;;4995203;28;21148;-70
2022/03/03 12:08:03;;;;;;;1999.90;999.90;;;9.70;91.50;;;;;;5001989;28;20486;-69